Time;durP1;ratioP1;P1;durP2;ratioP2;P2;SDS_P1;SDS_P2;PMS_P1;PMS_P2;Temp;Humidity;BMP_temperature;BMP_pressure;BME280_temperature;BME280_humidity;BME280_pressure;Samples;Min_cycle;Max_cycle;Signal;HPM_P1;HPM_P2
2024/03/03 00:00:34;;;;;;;57.60;33.27;;;;;;;;;;4414744;32;319425;-66
2024/03/03 00:03:02;;;;;;;49.70;28.67;;;;;;;;;;4402703;32;319396;-68
2024/03/03 00:05:28;;;;;;;49.00;28.23;;;;;;;;;;4414226;32;319469;-67
2024/03/03 00:07:54;;;;;;;70.93;36.33;;;;;;;;;;4403772;32;319518;-69
2024/03/03 00:10:21;;;;;;;66.27;34.07;;;;;;;;;;4413691;32;319685;-66
2024/03/03 00:12:48;;;;;;;69.27;34.33;;;;;;;;;;4404589;32;319402;-68
2024/03/03 00:15:15;;;;;;;69.67;33.33;;;;;;;;;;4412031;32;319340;-67
2024/03/03 00:17:41;;;;;;;56.73;29.00;;;;;;;;;;4403660;32;319377;-67
2024/03/03 00:20:10;;;;;;;64.30;30.47;;;;;;;;;;4413166;32;318846;-67
2024/03/03 00:22:37;;;;;;;111.90;43.43;;;;;;;;;;4413908;32;339162;-68
2024/03/03 00:25:04;;;;;;;102.87;42.97;;;;;;;;;;4401718;32;319570;-68
2024/03/03 00:27:31;;;;;;;145.90;41.77;;;;;;;;;;4413518;32;319412;-66
2024/03/03 00:29:58;;;;;;;119.60;38.53;;;;;;;;;;4403980;32;319465;-67
2024/03/03 00:32:25;;;;;;;124.87;38.03;;;;;;;;;;4414306;32;318700;-67
2024/03/03 00:34:51;;;;;;;114.73;37.63;;;;;;;;;;4401218;32;320008;-67
2024/03/03 00:37:19;;;;;;;103.27;37.83;;;;;;;;;;4412852;32;319493;-68
2024/03/03 00:39:46;;;;;;;120.30;36.73;;;;;;;;;;4403340;32;319443;-69
2024/03/03 00:42:13;;;;;;;127.80;35.00;;;;;;;;;;4413660;32;319737;-67
2024/03/03 00:44:39;;;;;;;64.80;31.20;;;;;;;;;;4403767;32;319345;-69
2024/03/03 00:47:06;;;;;;;64.70;30.20;;;;;;;;;;4411265;32;318214;-67
2024/03/03 00:49:33;;;;;;;60.20;28.03;;;;;;;;;;4413580;32;337938;-67
2024/03/03 00:52:01;;;;;;;83.87;27.40;;;;;;;;;;4404474;32;318282;-70
2024/03/03 00:54:29;;;;;;;47.77;24.90;;;;;;;;;;4414359;32;318340;-68
2024/03/03 00:56:56;;;;;;;110.83;26.67;;;;;;;;;;4402131;32;318223;-67
2024/03/03 00:59:22;;;;;;;113.67;26.67;;;;;;;;;;4411322;32;319058;-67
2024/03/03 01:01:49;;;;;;;74.93;26.83;;;;;;;;;;4402813;32;319400;-67
2024/03/03 01:04:16;;;;;;;47.57;26.47;;;;;;;;;;4414259;32;318040;-67
2024/03/03 01:06:42;;;;;;;50.27;26.67;;;;;;;;;;4403773;32;318510;-67
2024/03/03 01:09:09;;;;;;;58.87;28.90;;;;;;;;;;4410543;32;318255;-67
2024/03/03 01:11:38;;;;;;;70.70;33.87;;;;;;;;;;4414223;32;317663;-67
2024/03/03 01:14:05;;;;;;;94.07;47.33;;;;;;;;;;4400930;32;417920;-70
2024/03/03 01:16:32;;;;;;;88.37;41.17;;;;;;;;;;4412819;32;317480;-67
2024/03/03 01:18:59;;;;;;;81.97;34.43;;;;;;;;;;4401787;32;318871;-67
2024/03/03 01:21:26;;;;;;;75.80;29.70;;;;;;;;;;4411692;32;318184;-67
2024/03/03 01:23:52;;;;;;;77.20;31.33;;;;;;;;;;4402574;32;319651;-67
2024/03/03 01:26:19;;;;;;;79.57;34.07;;;;;;;;;;4413087;32;361101;-69
2024/03/03 01:28:47;;;;;;;67.33;32.13;;;;;;;;;;4407308;32;319320;-69
2024/03/03 01:31:14;;;;;;;76.87;34.30;;;;;;;;;;4411288;32;319298;-68
2024/03/03 01:33:40;;;;;;;72.43;31.77;;;;;;;;;;4402234;32;319446;-70
2024/03/03 01:36:07;;;;;;;72.20;32.53;;;;;;;;;;4412513;32;319322;-67
2024/03/03 01:38:34;;;;;;;68.70;30.10;;;;;;;;;;4412229;32;319495;-69
2024/03/03 01:41:01;;;;;;;65.87;31.57;;;;;;;;;;4401360;32;319611;-67
2024/03/03 01:43:27;;;;;;;66.93;29.63;;;;;;;;;;4412742;32;318250;-67
2024/03/03 01:45:55;;;;;;;78.27;30.70;;;;;;;;;;4401952;32;319279;-68
2024/03/03 01:48:22;;;;;;;75.13;29.23;;;;;;;;;;4411936;32;319673;-68
2024/03/03 01:50:50;;;;;;;67.33;26.30;;;;;;;;;;4402157;32;324280;-68
2024/03/03 01:53:18;;;;;;;58.63;28.17;;;;;;;;;;4411086;32;318371;-68
2024/03/03 01:55:46;;;;;;;65.40;25.77;;;;;;;;;;4402104;32;318350;-67
2024/03/03 01:58:13;;;;;;;71.10;24.37;;;;;;;;;;4413544;32;318790;-67
2024/03/03 02:00:40;;;;;;;70.33;22.80;;;;;;;;;;4402735;32;318272;-69
2024/03/03 02:03:09;;;;;;;46.80;21.80;;;;;;;;;;4411098;32;318376;-67
2024/03/03 02:05:37;;;;;;;41.20;21.73;;;;;;;;;;4412047;32;318290;-68
2024/03/03 02:08:05;;;;;;;93.70;19.07;;;;;;;;;;4403281;32;318358;-67
2024/03/03 02:10:33;;;;;;;42.60;20.73;;;;;;;;;;4413258;32;317463;-68
2024/03/03 02:13:00;;;;;;;38.07;18.63;;;;;;;;;;4399655;32;318114;-68
2024/03/03 02:15:26;;;;;;;30.70;17.77;;;;;;;;;;4411435;32;318231;-67
2024/03/03 02:17:55;;;;;;;47.93;19.13;;;;;;;;;;4401525;32;334975;-67
2024/03/03 02:20:24;;;;;;;41.07;21.60;;;;;;;;;;4411641;32;318273;-67
2024/03/03 02:22:53;;;;;;;42.73;22.87;;;;;;;;;;4402331;32;318268;-70
2024/03/03 02:25:20;;;;;;;50.00;21.07;;;;;;;;;;4411928;32;317652;-69
2024/03/03 02:27:48;;;;;;;46.43;20.17;;;;;;;;;;4401859;32;318447;-68
2024/03/03 02:30:14;;;;;;;46.27;19.83;;;;;;;;;;4411675;32;318021;-68
2024/03/03 02:32:41;;;;;;;48.13;19.70;;;;;;;;;;4400485;32;318840;-68
2024/03/03 02:35:09;;;;;;;39.93;19.60;;;;;;;;;;4409678;32;318286;-68
2024/03/03 02:37:35;;;;;;;36.23;20.80;;;;;;;;;;4411446;32;318370;-67
2024/03/03 02:40:06;;;;;;;62.30;19.13;;;;;;;;;;4402301;32;318574;-67
2024/03/03 02:42:33;;;;;;;62.10;18.37;;;;;;;;;;4412700;32;318317;-68
2024/03/03 02:45:00;;;;;;;41.03;19.07;;;;;;;;;;4400322;32;318303;-67
2024/03/03 02:47:27;;;;;;;42.53;18.67;;;;;;;;;;4411856;32;318260;-69
2024/03/03 02:49:53;;;;;;;31.23;17.90;;;;;;;;;;4401685;32;318288;-67
2024/03/03 02:52:20;;;;;;;28.63;16.20;;;;;;;;;;4412592;32;328292;-67
2024/03/03 02:54:47;;;;;;;50.53;14.17;;;;;;;;;;4402266;32;318290;-69
2024/03/03 02:57:15;;;;;;;28.13;16.30;;;;;;;;;;4410515;32;318250;-67
2024/03/03 02:59:42;;;;;;;36.13;15.57;;;;;;;;;;4402483;32;318422;-67
2024/03/03 03:02:09;;;;;;;25.40;14.23;;;;;;;;;;4412601;32;318211;-69
2024/03/03 03:04:35;;;;;;;33.13;19.67;;;;;;;;;;4411179;32;318258;-67
2024/03/03 03:07:02;;;;;;;41.10;17.03;;;;;;;;;;4399439;32;318344;-68
2024/03/03 03:09:28;;;;;;;28.90;15.83;;;;;;;;;;4412683;32;318336;-68
2024/03/03 03:11:55;;;;;;;33.53;15.53;;;;;;;;;;4401424;32;318427;-67
2024/03/03 03:14:24;;;;;;;32.77;14.60;;;;;;;;;;4412285;32;318188;-67
2024/03/03 03:16:51;;;;;;;28.90;14.53;;;;;;;;;;4402238;32;318893;-69
2024/03/03 03:19:17;;;;;;;28.37;14.40;;;;;;;;;;4409512;32;318447;-69
2024/03/03 03:21:44;;;;;;;27.00;14.73;;;;;;;;;;4402001;32;318191;-67
2024/03/03 03:24:11;;;;;;;38.50;15.87;;;;;;;;;;4412038;32;318275;-66
2024/03/03 03:26:37;;;;;;;30.07;15.63;;;;;;;;;;4411381;32;318685;-67
2024/03/03 03:29:05;;;;;;;22.60;14.77;;;;;;;;;;4396300;32;357736;-67
2024/03/03 03:31:33;;;;;;;50.33;20.73;;;;;;;;;;4412623;32;317426;-66
2024/03/03 03:34:00;;;;;;;30.77;18.43;;;;;;;;;;4402589;32;318765;-67
2024/03/03 03:36:27;;;;;;;27.67;14.37;;;;;;;;;;4411771;32;318272;-70
2024/03/03 03:38:54;;;;;;;29.87;16.47;;;;;;;;;;4398310;32;318297;-68
2024/03/03 03:41:21;;;;;;;35.33;16.60;;;;;;;;;;4411082;32;317775;-67
2024/03/03 03:43:47;;;;;;;23.37;15.23;;;;;;;;;;4400744;32;318418;-70
2024/03/03 03:46:14;;;;;;;21.87;12.87;;;;;;;;;;4411392;32;319941;-67
2024/03/03 03:48:42;;;;;;;26.93;12.47;;;;;;;;;;4402348;32;318554;-67
2024/03/03 03:51:09;;;;;;;24.83;13.97;;;;;;;;;;4409038;32;334042;-67
2024/03/03 03:53:36;;;;;;;24.00;13.03;;;;;;;;;;4412203;32;318987;-67
2024/03/03 03:56:03;;;;;;;13.00;8.20;;;;;;;;;;4402535;32;318547;-69
2024/03/03 03:58:31;;;;;;;11.10;6.60;;;;;;;;;;4410956;32;317303;-67
2024/03/03 04:00:58;;;;;;;7.57;5.57;;;;;;;;;;4400245;32;317368;-68
2024/03/03 04:03:25;;;;;;;10.33;6.93;;;;;;;;;;4412274;32;316189;-67
2024/03/03 04:05:53;;;;;;;21.27;11.13;;;;;;;;;;4401268;32;316756;-67
2024/03/03 04:08:19;;;;;;;16.13;11.30;;;;;;;;;;4413986;32;318669;-69
2024/03/03 04:10:46;;;;;;;20.17;11.60;;;;;;;;;;4403527;32;334737;-70
2024/03/03 04:13:13;;;;;;;9.57;6.60;;;;;;;;;;4412746;32;318735;-67
2024/03/03 04:15:40;;;;;;;11.23;6.93;;;;;;;;;;4406910;32;316242;-72
2024/03/03 04:18:07;;;;;;;16.23;8.43;;;;;;;;;;4413932;32;317412;-67
2024/03/03 04:20:33;;;;;;;17.00;9.83;;;;;;;;;;4413493;32;316542;-69
2024/03/03 04:23:01;;;;;;;27.43;10.37;;;;;;;;;;4401877;32;317410;-67
2024/03/03 04:25:28;;;;;;;18.47;10.37;;;;;;;;;;4414823;32;318326;-66
2024/03/03 04:27:55;;;;;;;14.97;9.70;;;;;;;;;;4404929;32;318502;-68
2024/03/03 04:30:21;;;;;;;12.63;8.30;;;;;;;;;;4413403;32;317710;-68
2024/03/03 04:32:48;;;;;;;13.90;8.47;;;;;;;;;;4403789;32;327688;-67
2024/03/03 04:35:15;;;;;;;14.43;7.47;;;;;;;;;;4412622;32;316618;-67
2024/03/03 04:37:42;;;;;;;16.00;9.33;;;;;;;;;;4404393;32;317370;-68
2024/03/03 04:40:11;;;;;;;15.80;9.90;;;;;;;;;;4413746;32;316811;-67
2024/03/03 04:42:38;;;;;;;26.73;10.50;;;;;;;;;;4413267;32;316696;-67
2024/03/03 04:45:07;;;;;;;24.20;11.33;;;;;;;;;;4397833;32;419524;-67
2024/03/03 04:47:33;;;;;;;21.37;11.43;;;;;;;;;;4413297;32;318405;-67
2024/03/03 04:50:00;;;;;;;23.23;11.73;;;;;;;;;;4404698;32;318539;-67
2024/03/03 04:52:27;;;;;;;23.50;11.50;;;;;;;;;;4413961;32;318279;-68
2024/03/03 04:54:54;;;;;;;26.87;11.43;;;;;;;;;;4402154;32;318363;-70
2024/03/03 04:57:22;;;;;;;30.30;10.03;;;;;;;;;;4414247;32;318534;-67
2024/03/03 04:59:49;;;;;;;16.43;8.77;;;;;;;;;;4404203;32;317919;-67
2024/03/03 05:02:18;;;;;;;13.53;8.50;;;;;;;;;;4412830;32;317311;-67
2024/03/03 05:04:44;;;;;;;13.13;8.97;;;;;;;;;;4402541;32;317148;-69
2024/03/03 05:07:11;;;;;;;12.23;8.00;;;;;;;;;;4411441;32;317394;-67
2024/03/03 05:09:38;;;;;;;12.70;8.57;;;;;;;;;;4412867;32;317178;-69
2024/03/03 05:12:06;;;;;;;16.00;8.83;;;;;;;;;;4401210;32;418335;-69
2024/03/03 05:14:34;;;;;;;23.90;8.53;;;;;;;;;;4412902;32;317297;-68
2024/03/03 05:17:01;;;;;;;17.20;9.67;;;;;;;;;;4399995;32;317379;-68
2024/03/03 05:19:28;;;;;;;11.70;8.50;;;;;;;;;;4412444;32;317307;-69
2024/03/03 05:21:54;;;;;;;13.77;7.97;;;;;;;;;;4402501;32;317437;-68
2024/03/03 05:24:24;;;;;;;13.77;8.67;;;;;;;;;;4413870;32;317391;-67
2024/03/03 05:26:53;;;;;;;18.20;9.27;;;;;;;;;;4402407;32;327415;-70
2024/03/03 05:29:20;;;;;;;20.20;9.77;;;;;;;;;;4413011;32;317166;-69
2024/03/03 05:31:48;;;;;;;19.63;10.83;;;;;;;;;;4402741;32;317446;-67
2024/03/03 05:34:15;;;;;;;18.97;9.87;;;;;;;;;;4412318;32;317602;-69
2024/03/03 05:36:42;;;;;;;14.43;9.77;;;;;;;;;;4403364;32;317467;-68
2024/03/03 05:39:09;;;;;;;15.70;9.93;;;;;;;;;;4409888;32;317769;-67
2024/03/03 05:41:36;;;;;;;20.57;9.63;;;;;;;;;;4413684;32;317254;-70
2024/03/03 05:44:04;;;;;;;19.63;10.43;;;;;;;;;;4403670;32;317101;-67
2024/03/03 05:46:31;;;;;;;20.27;12.63;;;;;;;;;;4411716;32;343720;-67
2024/03/03 05:48:59;;;;;;;24.27;13.03;;;;;;;;;;4400910;32;322098;-68
2024/03/03 05:51:25;;;;;;;26.27;12.50;;;;;;;;;;4411612;32;318214;-68
2024/03/03 05:53:52;;;;;;;25.23;14.87;;;;;;;;;;4403224;32;318236;-68
2024/03/03 05:56:19;;;;;;;19.07;11.67;;;;;;;;;;4414988;32;317531;-68
2024/03/03 05:58:46;;;;;;;25.93;13.27;;;;;;;;;;4405081;32;318461;-69
2024/03/03 06:01:13;;;;;;;26.07;11.73;;;;;;;;;;4409927;32;317776;-67
2024/03/03 06:03:40;;;;;;;22.40;11.83;;;;;;;;;;4408607;32;318315;-67
2024/03/03 06:06:10;;;;;;;19.70;12.57;;;;;;;;;;4413117;32;318268;-68
2024/03/03 06:08:40;;;;;;;18.83;12.80;;;;;;;;;;4413057;32;318404;-69
2024/03/03 06:11:08;;;;;;;15.07;9.10;;;;;;;;;;4398207;32;417208;-69
2024/03/03 06:13:35;;;;;;;15.40;8.70;;;;;;;;;;4411554;32;317333;-67
2024/03/03 06:16:02;;;;;;;13.03;8.00;;;;;;;;;;4402177;32;317382;-66
2024/03/03 06:18:28;;;;;;;19.20;10.00;;;;;;;;;;4412021;32;317084;-67
2024/03/03 06:20:56;;;;;;;53.83;32.17;;;;;;;;;;4400961;32;318407;-67
2024/03/03 06:23:25;;;;;;;21.00;14.20;;;;;;;;;;4411740;32;318428;-67
2024/03/03 06:25:51;;;;;;;12.90;8.67;;;;;;;;;;4402052;32;353831;-67
2024/03/03 06:28:18;;;;;;;11.90;9.03;;;;;;;;;;4412630;32;317660;-67
2024/03/03 06:30:45;;;;;;;10.00;7.63;;;;;;;;;;4403056;32;317133;-69
2024/03/03 06:33:12;;;;;;;9.13;7.83;;;;;;;;;;4409657;32;317300;-68
2024/03/03 06:35:40;;;;;;;10.80;7.87;;;;;;;;;;4411953;32;338846;-69
2024/03/03 06:38:07;;;;;;;15.53;9.03;;;;;;;;;;4400312;32;416717;-66
2024/03/03 06:40:35;;;;;;;16.23;9.43;;;;;;;;;;4412865;32;317329;-66
2024/03/03 06:43:02;;;;;;;14.50;8.37;;;;;;;;;;4400958;32;317328;-66
2024/03/03 06:45:29;;;;;;;13.83;8.20;;;;;;;;;;4412833;32;317359;-67
2024/03/03 06:47:56;;;;;;;11.40;8.07;;;;;;;;;;4401741;32;317294;-68
2024/03/03 06:50:22;;;;;;;12.90;9.03;;;;;;;;;;4412626;32;316987;-67
2024/03/03 06:52:49;;;;;;;16.27;9.03;;;;;;;;;;4402995;32;317524;-67
2024/03/03 06:55:16;;;;;;;12.57;9.03;;;;;;;;;;4409443;32;317264;-67
2024/03/03 06:57:46;;;;;;;14.03;10.53;;;;;;;;;;4401291;32;317402;-69
2024/03/03 07:00:14;;;;;;;13.70;10.47;;;;;;;;;;4413254;32;318474;-68
2024/03/03 07:05:35;;;;;;;18.10;10.70;;;;;;;;;;4391916;32;317414;-67
2024/03/03 07:08:02;;;;;;;15.70;11.83;;;;;;;;;;4401542;32;318198;-69
2024/03/03 07:10:29;;;;;;;19.00;12.53;;;;;;;;;;4412196;32;318396;-67
2024/03/03 07:12:58;;;;;;;20.03;13.47;;;;;;;;;;4399830;32;318465;-67
2024/03/03 07:15:25;;;;;;;16.67;10.53;;;;;;;;;;4411266;32;317770;-66
2024/03/03 07:17:51;;;;;;;22.73;12.17;;;;;;;;;;4401517;32;346910;-67
2024/03/03 07:20:18;;;;;;;23.77;13.70;;;;;;;;;;4412043;32;318499;-66
2024/03/03 07:22:47;;;;;;;30.97;15.97;;;;;;;;;;4400580;32;318550;-66
2024/03/03 07:25:14;;;;;;;24.50;16.20;;;;;;;;;;4410559;32;318164;-66
2024/03/03 07:27:41;;;;;;;24.70;15.97;;;;;;;;;;4400872;32;318459;-67
2024/03/03 07:30:11;;;;;;;32.80;17.40;;;;;;;;;;4411310;32;318511;-67
2024/03/03 07:32:40;;;;;;;24.17;17.47;;;;;;;;;;4411025;32;318638;-66
2024/03/03 07:35:08;;;;;;;34.77;20.47;;;;;;;;;;4395976;32;417718;-69
2024/03/03 07:37:34;;;;;;;34.70;19.90;;;;;;;;;;4411168;32;318381;-66
2024/03/03 07:40:01;;;;;;;33.50;20.27;;;;;;;;;;4402559;32;318592;-68
2024/03/03 07:42:28;;;;;;;31.87;20.33;;;;;;;;;;4414312;32;318612;-67
2024/03/03 07:44:54;;;;;;;26.60;19.30;;;;;;;;;;4402069;32;318232;-67
2024/03/03 07:47:23;;;;;;;37.17;23.13;;;;;;;;;;4414984;32;317731;-66
2024/03/03 07:49:49;;;;;;;37.40;24.30;;;;;;;;;;4405288;32;318535;-67
2024/03/03 07:52:16;;;;;;;30.73;24.30;;;;;;;;;;4415244;32;318675;-68
2024/03/03 07:54:43;;;;;;;36.60;26.23;;;;;;;;;;4404151;32;318255;-66
2024/03/03 07:57:10;;;;;;;38.27;24.07;;;;;;;;;;4412821;32;318555;-66
2024/03/03 07:59:36;;;;;;;35.63;26.27;;;;;;;;;;4412955;32;351827;-66
2024/03/03 08:02:03;;;;;;;35.17;25.53;;;;;;;;;;4404773;32;317785;-66
2024/03/03 08:04:32;;;;;;;35.07;25.20;;;;;;;;;;4414331;32;317818;-67
2024/03/03 08:07:02;;;;;;;34.67;23.10;;;;;;;;;;4402563;32;318529;-66
2024/03/03 08:09:28;;;;;;;25.47;21.20;;;;;;;;;;4414987;32;318668;-69
2024/03/03 08:11:55;;;;;;;34.17;21.90;;;;;;;;;;4404903;32;318708;-66
2024/03/03 08:14:22;;;;;;;35.10;25.10;;;;;;;;;;4414801;32;318669;-67
2024/03/03 08:16:49;;;;;;;29.70;19.23;;;;;;;;;;4403357;32;330800;-67
2024/03/03 08:19:15;;;;;;;26.43;17.77;;;;;;;;;;4412372;32;318362;-67
2024/03/03 08:21:44;;;;;;;27.90;19.33;;;;;;;;;;4404514;32;318543;-67
2024/03/03 08:24:10;;;;;;;19.10;13.83;;;;;;;;;;4413703;32;354468;-67
2024/03/03 08:26:37;;;;;;;20.50;14.20;;;;;;;;;;4414620;32;318543;-68
2024/03/03 08:29:04;;;;;;;31.50;18.40;;;;;;;;;;4401361;32;318528;-66
2024/03/03 08:31:35;;;;;;;27.07;19.40;;;;;;;;;;4412669;32;318431;-68
2024/03/03 08:34:03;;;;;;;52.30;25.13;;;;;;;;;;4403455;32;318465;-67
2024/03/03 08:36:29;;;;;;;100.10;47.87;;;;;;;;;;4414703;32;317886;-67
2024/03/03 08:38:57;;;;;;;82.13;38.90;;;;;;;;;;4402059;32;319407;-67
2024/03/03 08:41:24;;;;;;;65.27;36.87;;;;;;;;;;4414593;32;318282;-67
2024/03/03 08:43:51;;;;;;;87.93;47.93;;;;;;;;;;4414746;32;318337;-67
2024/03/03 08:46:18;;;;;;;165.47;75.93;;;;;;;;;;4397940;32;419159;-67
2024/03/03 08:48:45;;;;;;;83.10;43.43;;;;;;;;;;4412793;32;322951;-67
2024/03/03 08:51:11;;;;;;;64.53;35.77;;;;;;;;;;4404318;32;318466;-68
2024/03/03 08:53:38;;;;;;;46.97;27.30;;;;;;;;;;4413511;32;318227;-69
2024/03/03 08:56:07;;;;;;;32.00;24.03;;;;;;;;;;4400989;32;319581;-67
2024/03/03 08:58:34;;;;;;;45.60;29.10;;;;;;;;;;4412341;32;318999;-66
2024/03/03 09:01:00;;;;;;;161.60;76.27;;;;;;;;;;4403860;32;318837;-68
2024/03/03 09:03:27;;;;;;;86.17;52.87;;;;;;;;;;4413998;32;320648;-68
2024/03/03 09:05:55;;;;;;;40.70;29.00;;;;;;;;;;4404640;32;319470;-72
2024/03/03 09:08:21;;;;;;;43.87;27.50;;;;;;;;;;4411741;32;319491;-67
2024/03/03 09:10:48;;;;;;;36.80;26.67;;;;;;;;;;4413914;32;318234;-67
2024/03/03 09:13:16;;;;;;;44.60;32.70;;;;;;;;;;4402590;32;319336;-69
2024/03/03 09:15:43;;;;;;;44.40;29.60;;;;;;;;;;4412984;32;319172;-67
2024/03/03 09:18:10;;;;;;;40.83;29.17;;;;;;;;;;4399642;32;355879;-67
2024/03/03 09:20:36;;;;;;;38.23;27.27;;;;;;;;;;4413865;32;318578;-66
2024/03/03 09:23:03;;;;;;;42.53;27.40;;;;;;;;;;4403585;32;318714;-68
2024/03/03 09:25:30;;;;;;;40.60;27.97;;;;;;;;;;4414023;32;318385;-67
2024/03/03 09:27:57;;;;;;;37.37;27.30;;;;;;;;;;4402735;32;318910;-67
2024/03/03 09:30:25;;;;;;;45.70;30.47;;;;;;;;;;4411339;32;319387;-69
2024/03/03 09:32:53;;;;;;;42.40;31.93;;;;;;;;;;4414060;32;319869;-68
2024/03/03 09:35:20;;;;;;;46.93;30.80;;;;;;;;;;4399928;32;417306;-66
2024/03/03 09:37:49;;;;;;;52.00;36.63;;;;;;;;;;4413758;32;319721;-68
2024/03/03 09:40:16;;;;;;;37.07;30.63;;;;;;;;;;4401463;32;319551;-66
2024/03/03 09:42:45;;;;;;;37.67;30.07;;;;;;;;;;4412680;32;319472;-66
2024/03/03 09:45:14;;;;;;;48.23;32.30;;;;;;;;;;4402280;32;320378;-71
2024/03/03 09:47:44;;;;;;;41.70;32.63;;;;;;;;;;4413125;32;319968;-67
2024/03/03 09:50:12;;;;;;;52.30;34.43;;;;;;;;;;4399747;32;337558;-68
2024/03/03 09:52:42;;;;;;;79.70;46.97;;;;;;;;;;4413282;32;319607;-68
2024/03/03 09:55:10;;;;;;;56.90;38.87;;;;;;;;;;4402929;32;318991;-68
2024/03/03 09:57:37;;;;;;;46.40;35.80;;;;;;;;;;4413457;32;319509;-75
2024/03/03 10:00:06;;;;;;;49.03;36.43;;;;;;;;;;4402414;32;319316;-68
2024/03/03 10:02:34;;;;;;;49.63;37.37;;;;;;;;;;4413803;32;319599;-71
2024/03/03 10:05:04;;;;;;;41.77;33.47;;;;;;;;;;4401518;32;319558;-68
2024/03/03 10:07:38;;;;;;;46.90;34.83;;;;;;;;;;4412372;32;319483;-69
2024/03/03 10:10:06;;;;;;;41.73;30.60;;;;;;;;;;4401124;32;319787;-69
2024/03/03 10:12:34;;;;;;;34.87;25.83;;;;;;;;;;4411892;32;357994;-68
2024/03/03 10:15:04;;;;;;;36.37;27.47;;;;;;;;;;4401014;32;319864;-69
2024/03/03 10:17:31;;;;;;;41.93;26.03;;;;;;;;;;4416758;32;319474;-69
2024/03/03 10:20:05;;;;;;;39.47;27.77;;;;;;;;;;4403062;32;333164;-68
2024/03/03 10:22:33;;;;;;;38.73;31.20;;;;;;;;;;4412341;32;319558;-69
2024/03/03 10:25:10;;;;;;;50.70;37.63;;;;;;;;;;4402976;32;319531;-70
2024/03/03 10:27:38;;;;;;;60.90;42.93;;;;;;;;;;4412920;32;319738;-70
2024/03/03 10:30:07;;;;;;;50.60;36.53;;;;;;;;;;4399485;32;319404;-69
2024/03/03 10:32:34;;;;;;;52.70;36.00;;;;;;;;;;4411722;32;319492;-72
2024/03/03 10:35:02;;;;;;;64.97;42.00;;;;;;;;;;4401449;32;319389;-69
2024/03/03 10:37:30;;;;;;;53.80;38.13;;;;;;;;;;4412219;32;318866;-68
2024/03/03 10:39:57;;;;;;;140.60;95.13;;;;;;;;;;4399335;32;319132;-69
2024/03/03 10:42:24;;;;;;;263.13;190.53;;;;;;;;;;4408891;32;320553;-69
2024/03/03 10:44:52;;;;;;;109.87;81.47;;;;;;;;;;4411860;32;321579;-70
2024/03/03 10:47:18;;;;;;;100.87;71.70;;;;;;;;;;4402830;32;320640;-69
2024/03/03 10:49:45;;;;;;;46.70;36.33;;;;;;;;;;4411174;32;320669;-68
2024/03/03 10:52:14;;;;;;;48.70;36.07;;;;;;;;;;4399457;32;319390;-68
2024/03/03 10:54:42;;;;;;;52.90;35.17;;;;;;;;;;4412573;32;319655;-69
2024/03/03 10:57:10;;;;;;;51.63;36.67;;;;;;;;;;4402034;32;329519;-69
2024/03/03 10:59:39;;;;;;;56.20;37.10;;;;;;;;;;4410699;32;359116;-71
2024/03/03 11:02:10;;;;;;;54.53;37.30;;;;;;;;;;4401542;32;319569;-71
2024/03/03 11:04:39;;;;;;;52.43;39.00;;;;;;;;;;4408881;32;318627;-70
2024/03/03 11:07:06;;;;;;;54.20;40.60;;;;;;;;;;4401665;32;319263;-70
2024/03/03 11:09:35;;;;;;;54.30;39.90;;;;;;;;;;4411963;32;319836;-69
2024/03/03 11:12:06;;;;;;;65.30;42.37;;;;;;;;;;4402336;32;319344;-71
2024/03/03 11:14:38;;;;;;;64.37;41.47;;;;;;;;;;4412493;32;319546;-71
2024/03/03 11:17:09;;;;;;;53.17;42.33;;;;;;;;;;4404393;32;319472;-69
2024/03/03 11:19:41;;;;;;;61.93;43.27;;;;;;;;;;4414270;32;319270;-71
2024/03/03 11:22:12;;;;;;;75.27;52.70;;;;;;;;;;4401490;32;318686;-70
2024/03/03 11:24:41;;;;;;;43.83;35.03;;;;;;;;;;4415818;32;319050;-69
2024/03/03 11:27:14;;;;;;;54.70;34.77;;;;;;;;;;4405975;32;319290;-69
2024/03/03 11:29:44;;;;;;;46.37;33.97;;;;;;;;;;4414519;32;319627;-70
2024/03/03 11:32:11;;;;;;;58.97;39.97;;;;;;;;;;4403306;32;319460;-69
2024/03/03 11:34:39;;;;;;;96.50;58.50;;;;;;;;;;4415247;32;320116;-70
2024/03/03 11:37:09;;;;;;;295.83;163.23;;;;;;;;;;4404105;32;319590;-69
2024/03/03 11:39:37;;;;;;;60.97;40.53;;;;;;;;;;4415396;32;321740;-71
2024/03/03 11:42:21;;;;;;;49.73;34.03;;;;;;;;;;4402035;32;319593;-70
2024/03/03 11:44:50;;;;;;;63.70;45.33;;;;;;;;;;4414297;32;319348;-69
2024/03/03 11:47:16;;;;;;;56.87;43.23;;;;;;;;;;4404904;32;319334;-70
2024/03/03 11:49:44;;;;;;;59.00;41.57;;;;;;;;;;4413863;32;319247;-72
2024/03/03 11:52:11;;;;;;;215.83;135.60;;;;;;;;;;4402818;32;319422;-70
2024/03/03 11:54:41;;;;;;;71.43;51.13;;;;;;;;;;4414727;32;320757;-69
2024/03/03 11:57:09;;;;;;;75.73;50.77;;;;;;;;;;4404984;32;319423;-70
2024/03/03 11:59:39;;;;;;;78.00;54.73;;;;;;;;;;4413746;32;321692;-69
2024/03/03 12:02:07;;;;;;;56.03;42.63;;;;;;;;;;4401072;32;318805;-70
2024/03/03 12:04:35;;;;;;;69.07;51.53;;;;;;;;;;4413834;32;318540;-69
2024/03/03 12:07:06;;;;;;;60.80;42.07;;;;;;;;;;4404934;32;319311;-69
2024/03/03 12:09:33;;;;;;;51.27;39.17;;;;;;;;;;4414990;32;319381;-70
2024/03/03 12:12:00;;;;;;;59.50;41.50;;;;;;;;;;4405266;32;319406;-69
2024/03/03 12:14:27;;;;;;;130.77;78.17;;;;;;;;;;4412522;32;319367;-70
2024/03/03 12:16:55;;;;;;;67.10;48.97;;;;;;;;;;4413662;32;320362;-70
2024/03/03 12:19:22;;;;;;;50.07;38.33;;;;;;;;;;4401454;32;419224;-69
2024/03/03 12:21:49;;;;;;;67.62;43.70;;;;;;;;;;4414392;32;319430;-70
2024/03/03 12:24:16;;;;;;;41.80;31.90;;;;;;;;;;4403103;32;319432;-70
2024/03/03 12:26:43;;;;;;;58.30;38.23;;;;;;;;;;4414078;32;319290;-71
2024/03/03 12:29:09;;;;;;;54.27;39.70;;;;;;;;;;4404738;32;320123;-70
2024/03/03 12:31:36;;;;;;;51.00;38.43;;;;;;;;;;4413725;32;319450;-71
2024/03/03 12:34:05;;;;;;;64.50;42.10;;;;;;;;;;4403360;32;319254;-69
2024/03/03 12:36:32;;;;;;;58.07;39.83;;;;;;;;;;4413802;32;319181;-69
2024/03/03 12:38:58;;;;;;;51.77;38.07;;;;;;;;;;4404001;32;319790;-69
2024/03/03 12:41:25;;;;;;;47.97;36.07;;;;;;;;;;4413303;32;319269;-69
2024/03/03 12:43:55;;;;;;;61.07;37.77;;;;;;;;;;4413133;32;319361;-70
2024/03/03 12:46:21;;;;;;;52.93;37.77;;;;;;;;;;4399124;32;418500;-69
2024/03/03 12:48:48;;;;;;;56.57;39.03;;;;;;;;;;4413128;32;319530;-69
2024/03/03 12:51:16;;;;;;;60.27;40.03;;;;;;;;;;4401976;32;359580;-70
2024/03/03 12:53:43;;;;;;;117.07;78.23;;;;;;;;;;4412528;32;319054;-70
2024/03/03 12:56:20;;;;;;;70.77;48.90;;;;;;;;;;4401034;32;320586;-70
2024/03/03 12:58:47;;;;;;;68.50;47.57;;;;;;;;;;4414770;32;319166;-70
2024/03/03 13:01:16;;;;;;;53.40;39.27;;;;;;;;;;4403378;32;319351;-71
2024/03/03 13:03:43;;;;;;;46.97;35.23;;;;;;;;;;4414048;32;318981;-71
2024/03/03 13:06:15;;;;;;;53.63;37.37;;;;;;;;;;4400899;32;319659;-70
2024/03/03 13:08:42;;;;;;;52.93;36.40;;;;;;;;;;4413201;32;319332;-72
2024/03/03 13:11:10;;;;;;;54.23;36.83;;;;;;;;;;4403769;32;326388;-72
2024/03/03 13:13:38;;;;;;;69.67;46.57;;;;;;;;;;4412911;32;319690;-70
2024/03/03 13:16:08;;;;;;;58.53;38.50;;;;;;;;;;4400861;32;319428;-70
2024/03/03 13:18:35;;;;;;;52.00;37.17;;;;;;;;;;4413876;32;319254;-72
2024/03/03 13:21:10;;;;;;;54.17;36.27;;;;;;;;;;4402236;32;319474;-71
2024/03/03 13:23:38;;;;;;;57.40;35.70;;;;;;;;;;4413628;32;319130;-72
2024/03/03 13:26:05;;;;;;;46.80;32.67;;;;;;;;;;4401404;32;319248;-71
2024/03/03 13:28:32;;;;;;;58.27;39.03;;;;;;;;;;4413850;32;319538;-71
2024/03/03 13:30:59;;;;;;;53.27;35.20;;;;;;;;;;4403329;32;318786;-71
2024/03/03 13:33:27;;;;;;;54.60;34.90;;;;;;;;;;4413684;32;358634;-74
2024/03/03 13:35:55;;;;;;;55.40;35.93;;;;;;;;;;4410614;32;319353;-71
2024/03/03 13:38:22;;;;;;;54.40;36.93;;;;;;;;;;4411848;32;319777;-70
2024/03/03 13:40:50;;;;;;;52.43;36.20;;;;;;;;;;4413785;32;318505;-70
2024/03/03 13:43:17;;;;;;;83.40;52.83;;;;;;;;;;4403717;32;319456;-72
2024/03/03 13:45:44;;;;;;;72.10;48.27;;;;;;;;;;4413403;32;319318;-70
2024/03/03 13:48:12;;;;;;;64.70;37.73;;;;;;;;;;4401602;32;319441;-70
2024/03/03 13:50:39;;;;;;;63.70;44.70;;;;;;;;;;4414346;32;319532;-73
2024/03/03 13:53:06;;;;;;;72.03;45.67;;;;;;;;;;4403962;32;331216;-70
2024/03/03 13:55:33;;;;;;;83.27;56.33;;;;;;;;;;4414495;32;319313;-70
2024/03/03 13:58:01;;;;;;;98.27;66.30;;;;;;;;;;4403054;32;319416;-70
2024/03/03 14:00:29;;;;;;;71.00;51.33;;;;;;;;;;4409974;32;319476;-70
2024/03/03 14:02:55;;;;;;;174.13;111.70;;;;;;;;;;4402394;32;319304;-72
2024/03/03 14:05:22;;;;;;;66.27;43.33;;;;;;;;;;4412169;32;321522;-71
2024/03/03 14:07:49;;;;;;;54.50;38.73;;;;;;;;;;4413217;32;319418;-70
2024/03/03 14:10:16;;;;;;;55.77;40.97;;;;;;;;;;4400677;32;319766;-70